KA8JMW-WX Weather Reports


Display with metric or nautical units.
time (UTC)temp
F
wind
direction
speed
MPH
gust
MPH
rain 1hr
in
rain 24hr
in
rain mn
in
humidity
%
barometer
mb
20221130104015 27 337 2.0 5.0 0.00 0.00 0.00 58 1011.2
20221130103055 27 307 5.0 7.0 0.00 0.00 0.00 57 1011.2
20221130102015 27 319 4.0 5.0 0.00 0.00 0.00 57 1011.6
20221130101015 27 332 4.0 7.0 0.00 0.00 0.00 57 1011.5
20221130100015 27 342 4.0 5.0 0.00 0.00 0.00 58 1012.0
20221130095035 27 359 3.0 6.0 0.00 0.00 0.00 57 1012.0
20221130094015 27 347 2.0 4.0 0.00 0.00 0.00 56 1012.0
20221130093015 28 243 2.0 3.0 0.00 0.00 0.00 55 1011.9
20221130092015 28 59 2.0 4.0 0.00 0.00 0.00 54 1011.9
20221130091015 29 89 2.0 4.0 0.00 0.00 0.00 52 1012.2
20221130090015 30 309 3.0 6.0 0.00 0.00 0.00 51 1012.2
20221130085035 31 305 6.0 8.0 0.00 0.00 0.00 50 1012.5
20221130084015 31 315 6.0 9.0 0.00 0.00 0.00 50 1012.5
20221130083015 31 310 6.0 9.0 0.00 0.00 0.00 50 1012.4
20221130082015 30 302 6.0 10.0 0.00 0.00 0.00 51 1011.8
20221130081015 30 311 7.0 11.0 0.00 0.00 0.00 52 1011.6
20221130080035 29 307 8.0 12.0 0.00 0.00 0.00 53 1011.5
20221130075015 29 310 8.0 12.0 0.00 0.00 0.00 53 1011.1
20221130074015 29 308 8.0 13.0 0.00 0.00 0.00 53 1010.7
20221130073015 29 316 8.0 11.0 0.00 0.00 0.00 54 1010.7
20221130072015 29 309 7.0 11.0 0.00 0.00 0.00 54 1010.7
20221130071015 29 314 8.0 13.0 0.00 0.00 0.00 54 1010.8
20221130070015 29 314 8.0 12.0 0.00 0.00 0.00 54 1010.7
20221130065015 30 305 8.0 14.0 0.00 0.00 0.00 54 1011.1
20221130064015 30 306 8.0 15.0 0.00 0.00 0.00 54 1011.2
20221130063015 30 313 8.0 13.0 0.00 0.00 0.00 54 1010.7
20221130062015 30 308 8.0 17.0 0.00 0.00 0.00 55 1010.8
20221130061055 30 309 8.0 12.0 0.00 0.00 0.00 55 1010.8
20221130060015 30 315 8.0 12.0 0.00 0.00 0.00 55 1010.8
20221130055015 31 310 8.0 11.0 0.00 0.00 0.00 55 1010.9
20221130054015 31 331 8.0 11.0 0.00 0.00 0.00 55 1010.7
20221130053015 32 327 7.0 13.0 0.00 0.00 0.00 53 1010.7
20221130052015 32 312 9.0 12.0 0.00 0.00 0.00 53 1010.6
20221130051035 32 315 8.0 12.0 0.00 0.00 0.00 53 1010.3
20221130050015 33 310 9.0 16.0 0.00 0.00 0.00 52 1010.2
20221130045015 33 316 7.0 13.0 0.00 0.00 0.00 50 1010.1
20221130044015 33 325 9.0 15.0 0.00 0.00 0.00 51 1009.9
20221130042015 32 309 9.0 13.0 0.00 0.00 0.00 54 1009.0
20221130041015 31 311 8.0 12.0 0.00 0.00 0.00 56 1008.9
20221130040015 31 324 10.0 14.0 0.00 0.00 0.00 56 1008.6
20221130035035 31 320 8.0 13.0 0.00 0.00 0.00 57 1008.6
20221130034015 31 329 10.0 13.0 0.00 0.00 0.00 57 1008.5
20221130033035 32 318 8.0 13.0 0.00 0.00 0.00 56 1008.4
20221130032015 32 307 8.0 12.0 0.00 0.00 0.00 57 1008.0
20221130031035 32 315 7.0 10.0 0.00 0.00 0.00 56 1007.8
20221130030015 32 326 8.0 12.0 0.00 0.00 0.00 57 1007.4
20221130025015 32 344 11.0 17.0 0.00 0.00 0.00 57 1007.1
20221130024035 32 327 8.0 12.0 0.00 0.00 0.00 57 1006.8
20221130023015 33 323 7.0 11.0 0.00 0.00 0.00 56 1006.7
20221130022015 33 348 7.0 10.0 0.00 0.00 0.00 55 1006.4
20221130021015 33 328 5.0 9.0 0.00 0.00 0.00 55 1005.9
20221130020015 33 325 7.0 11.0 0.00 0.00 0.00 55 1005.8
20221130015015 34 334 10.0 16.0 0.00 0.00 0.00 54 1005.6
20221130014015 34 314 6.0 12.0 0.00 0.00 0.00 54 1005.7
20221130013015 34 335 9.0 14.0 0.00 0.00 0.00 54 1005.8
20221130012015 35 324 10.0 16.0 0.00 0.00 0.00 53 1005.5
20221130011015 36 318 10.0 18.0 0.00 0.00 0.00 51 1005.8
20221130010015 37 304 9.0 19.0 0.00 0.00 0.00 50 1006.1
20221130005015 36 325 10.0 25.0 0.00 0.00 0.00 53 1005.3
20221130004015 36 351 12.0 23.0 0.00 0.00 0.00 54 1005.0
20221130003035 36 354 9.0 16.0 0.00 0.00 0.00 54 1005.0
20221130002015 36 12 9.0 14.0 0.00 0.00 0.00 55 1004.8
20221130001015 37 13 7.0 12.0 0.00 0.00 0.00 55 1004.7
20221130000015 37 6 8.0 12.0 0.00 0.00 0.00 54 1004.5
20221129235015 38 359 9.0 13.0 0.00 0.00 0.00 53 1004.5
20221129234015 39 351 8.0 12.0 0.00 0.00 0.00 52 1004.5
20221129233015 39 348 9.0 15.0 0.00 0.00 0.00 51 1003.9
20221129232015 40 345 11.0 18.0 0.00 0.00 0.00 50 1004.1
20221129231015 41 335 13.0 21.0 0.00 0.00 0.00 49 1004.2
20221129230015 42 344 11.0 21.0 0.00 0.00 0.00 49 1004.0
20221129225015 43 346 12.0 20.0 0.00 0.00 0.00 46 1004.1
20221129224015 44 327 11.0 20.0 0.00 0.00 0.00 43 1004.2
20221129223015 44 319 11.0 21.0 0.00 0.00 0.00 43 1004.2
20221129222015 45 324 13.0 22.0 0.00 0.00 0.00 42 1003.9
20221129221015 45 317 14.0 29.0 0.00 0.00 0.00 40 1003.8
20221129220035 47 306 13.0 24.0 0.00 0.00 0.00 37 1004.2
20221129215015 47 289 14.0 24.0 0.00 0.00 0.00 37 1004.2
20221129214015 47 285 14.0 25.0 0.00 0.00 0.00 37 1004.1
20221129213015 47 278 16.0 36.0 0.00 0.00 0.00 36 1004.3
20221129212035 47 276 19.0 35.0 0.00 0.00 0.00 34 1003.8
20221129211015 48 284 14.0 25.0 0.00 0.00 0.00 33 1004.0
20221129210015 48 265 17.0 33.0 0.00 0.00 0.00 33 1003.8
20221129205035 48 281 18.0 31.0 0.00 0.00 0.00 32 1003.7
20221129204035 48 275 16.0 30.0 0.00 0.00 0.00 33 1003.4
20221129203015 48 258 19.0 36.0 0.00 0.00 0.00 36 1003.0
20221129202015 47 256 21.0 40.0 0.00 0.00 0.00 37 1002.4
20221129201015 47 253 22.0 39.0 0.00 0.00 0.00 38 1002.4
20221129200015 47 252 19.0 32.0 0.00 0.00 0.00 38 1002.3
20221129195015 47 257 20.0 36.0 0.00 0.00 0.00 40 1002.3
20221129194015 46 251 22.0 39.0 0.00 0.00 0.00 41 1002.3
20221129193035 46 254 23.0 35.0 0.00 0.00 0.00 42 1002.4
20221129192035 46 248 20.0 39.0 0.00 0.00 0.00 44 1002.4
20221129191035 46 254 21.0 38.0 0.00 0.00 0.00 44 1002.8
20221129190035 45 261 22.0 36.0 0.00 0.00 0.00 45 1002.3
20221129185015 46 250 21.0 33.0 0.00 0.00 0.00 45 1002.7
20221129184035 46 251 23.0 38.0 0.00 0.00 0.00 44 1002.8
20221129183015 45 252 20.0 35.0 0.00 0.00 0.00 46 1002.3
20221129182015 44 253 19.0 40.0 0.00 0.00 0.00 48 1002.1
20221129181015 45 254 18.0 31.0 0.00 0.00 0.00 47 1002.4
20221129180015 45 251 17.0 28.0 0.00 0.00 0.00 47 1002.2
20221129175015 44 255 23.0 38.0 0.00 0.00 0.00 49 1002.2
20221129174015 44 255 18.0 30.0 0.00 0.00 0.00 49 1002.2
20221129173015 43 258 18.0 31.0 0.00 0.00 0.00 50 1001.7
20221129172015 43 253 16.0 30.0 0.00 0.00 0.00 50 1001.8
20221129171015 42 260 17.0 30.0 0.00 0.00 0.00 50 1001.6
20221129170035 42 257 17.0 35.0 0.00 0.00 0.00 50 1001.6
20221129165015 42 255 19.0 34.0 0.00 0.00 0.00 50 1001.7
20221129164015 41 256 19.0 37.0 0.00 0.00 0.00 50 1001.2
20221129163015 41 248 18.0 29.0 0.00 0.00 0.00 50 1001.1
20221129162015 41 250 20.0 40.0 0.00 0.00 0.00 50 1001.1
20221129161015 41 252 19.0 29.0 0.00 0.00 0.00 49 1001.0
20221129160015 41 256 18.0 33.0 0.00 0.00 0.00 50 1000.7
20221129155015 40 252 19.0 32.0 0.00 0.00 0.00 48 1000.3
20221129154015 40 259 17.0 30.0 0.00 0.00 0.00 47 1000.3
20221129153015 39 261 14.0 32.0 0.00 0.00 0.00 46 999.6
20221129152015 38 251 15.0 28.0 0.00 0.00 0.00 44 999.3
20221129151015 38 247 11.0 19.0 0.00 0.00 0.00 45 999.3
20221129150015 37 249 12.0 19.0 0.00 0.00 0.00 46 999.1
20221129145015 36 249 11.0 18.0 0.00 0.00 0.00 47 999.1
20221129144055 35 259 9.0 16.0 0.00 0.00 0.00 48 998.4
20221129143015 35 254 11.0 18.0 0.00 0.00 0.00 48 998.2
20221129142015 35 257 11.0 21.0 0.00 0.00 0.00 48 997.7
20221129141015 34 258 10.0 17.0 0.00 0.00 0.00 49 997.4
20221129140035 34 262 12.0 19.0 0.00 0.00 0.00 50 997.3
20221129135015 33 264 10.0 16.0 0.00 0.00 0.00 50 996.9
20221129134015 33 268 8.0 15.0 0.00 0.00 0.00 52 996.4
20221129133015 33 260 8.0 12.0 0.00 0.00 0.00 52 996.5
20221129132015 32 266 7.0 11.0 0.00 0.00 0.00 53 996.1
20221129131035 33 276 7.0 11.0 0.00 0.00 0.00 53 996.0
20221129130015 33 271 7.0 10.0 0.00 0.00 0.00 52 996.1
20221129125015 33 271 7.0 12.0 0.00 0.00 0.00 53 996.1
20221129124015 33 282 7.0 11.0 0.00 0.00 0.00 54 996.0
20221129123015 32 285 6.0 10.0 0.00 0.00 0.00 55 995.9
20221129122035 32 269 8.0 12.0 0.00 0.00 0.00 56 995.9
20221129121015 31 258 8.0 13.0 0.00 0.00 0.00 58 995.8
20221129120015 32 260 7.0 12.0 0.00 0.00 0.00 57 996.5
20221129115035 33 260 8.0 12.0 0.00 0.00 0.00 56 997.2
20221129114015 33 268 9.0 14.0 0.00 0.00 0.00 55 997.5
20221129113015 32 267 9.0 14.0 0.00 0.00 0.00 56 997.4
20221129112015 33 263 8.0 12.0 0.00 0.00 0.00 55 997.6
20221129111015 33 263 8.0 12.0 0.00 0.00 0.00 55 997.7
20221129110015 33 263 8.0 12.0 0.00 0.00 0.00 55 997.7
20221129105035 33 262 9.0 14.0 0.00 0.00 0.00 55 998.0